sensor_id;sensor_type;location;lat;lon;timestamp;temperature;humidity
31263;DHT22;17892;52.080;9.006;2023-11-19T00:00:36;9.00;99.90
31263;DHT22;17892;52.080;9.006;2023-11-19T00:03:01;9.00;99.90
31263;DHT22;17892;52.080;9.006;2023-11-19T00:05:27;9.00;99.90
31263;DHT22;17892;52.080;9.006;2023-11-19T00:07:53;9.10;99.90
31263;DHT22;17892;52.080;9.006;2023-11-19T00:10:19;9.10;99.90
31263;DHT22;17892;52.080;9.006;2023-11-19T00:12:47;9.10;99.90
31263;DHT22;17892;52.080;9.006;2023-11-19T00:15:14;9.10;99.90
31263;DHT22;17892;52.080;9.006;2023-11-19T00:17:42;9.10;99.90
31263;DHT22;17892;52.080;9.006;2023-11-19T00:20:11;9.20;99.90
31263;DHT22;17892;52.080;9.006;2023-11-19T00:22:38;9.20;99.90
31263;DHT22;17892;52.080;9.006;2023-11-19T00:25:04;9.20;99.90
31263;DHT22;17892;52.080;9.006;2023-11-19T00:27:31;9.20;99.90
31263;DHT22;17892;52.080;9.006;2023-11-19T00:29:56;9.20;99.90
31263;DHT22;17892;52.080;9.006;2023-11-19T00:32:23;9.30;99.90
31263;DHT22;17892;52.080;9.006;2023-11-19T00:34:48;9.30;99.90
31263;DHT22;17892;52.080;9.006;2023-11-19T00:37:15;9.40;99.90
31263;DHT22;17892;52.080;9.006;2023-11-19T00:39:41;9.40;99.90
31263;DHT22;17892;52.080;9.006;2023-11-19T00:42:07;9.40;99.90
31263;DHT22;17892;52.080;9.006;2023-11-19T00:44:33;9.50;99.90
31263;DHT22;17892;52.080;9.006;2023-11-19T00:46:59;9.50;99.90
31263;DHT22;17892;52.080;9.006;2023-11-19T00:49:27;9.60;99.90
31263;DHT22;17892;52.080;9.006;2023-11-19T00:51:53;9.60;99.90
31263;DHT22;17892;52.080;9.006;2023-11-19T00:54:18;9.60;99.90
31263;DHT22;17892;52.080;9.006;2023-11-19T00:56:44;9.70;99.90
31263;DHT22;17892;52.080;9.006;2023-11-19T00:59:10;9.70;99.90
31263;DHT22;17892;52.080;9.006;2023-11-19T01:01:36;9.70;99.90
31263;DHT22;17892;52.080;9.006;2023-11-19T01:04:02;9.70;99.90
31263;DHT22;17892;52.080;9.006;2023-11-19T01:06:28;9.70;99.90
31263;DHT22;17892;52.080;9.006;2023-11-19T01:08:55;9.70;99.90
31263;DHT22;17892;52.080;9.006;2023-11-19T01:11:22;9.70;99.90
31263;DHT22;17892;52.080;9.006;2023-11-19T01:13:49;9.70;99.90
31263;DHT22;17892;52.080;9.006;2023-11-19T01:16:15;9.80;99.90
31263;DHT22;17892;52.080;9.006;2023-11-19T01:18:41;9.80;99.90
31263;DHT22;17892;52.080;9.006;2023-11-19T01:21:07;9.80;99.90
31263;DHT22;17892;52.080;9.006;2023-11-19T01:23:32;9.80;99.90
31263;DHT22;17892;52.080;9.006;2023-11-19T01:25:59;9.90;99.90
31263;DHT22;17892;52.080;9.006;2023-11-19T01:28:25;9.90;99.90
31263;DHT22;17892;52.080;9.006;2023-11-19T01:30:51;9.90;99.90
31263;DHT22;17892;52.080;9.006;2023-11-19T01:33:17;9.90;99.90
31263;DHT22;17892;52.080;9.006;2023-11-19T01:35:42;9.90;99.90
31263;DHT22;17892;52.080;9.006;2023-11-19T01:38:08;9.90;99.90
31263;DHT22;17892;52.080;9.006;2023-11-19T01:40:34;9.90;99.90
31263;DHT22;17892;52.080;9.006;2023-11-19T01:43:02;9.90;99.90
31263;DHT22;17892;52.080;9.006;2023-11-19T01:45:30;9.90;99.90
31263;DHT22;17892;52.080;9.006;2023-11-19T01:47:57;9.90;99.90
31263;DHT22;17892;52.080;9.006;2023-11-19T01:50:23;9.90;99.90
31263;DHT22;17892;52.080;9.006;2023-11-19T01:52:54;9.90;99.90
31263;DHT22;17892;52.080;9.006;2023-11-19T01:55:20;9.90;99.90
31263;DHT22;17892;52.080;9.006;2023-11-19T01:57:49;9.90;99.90
31263;DHT22;17892;52.080;9.006;2023-11-19T02:00:15;9.90;99.90
31263;DHT22;17892;52.080;9.006;2023-11-19T02:02:42;9.90;99.90
31263;DHT22;17892;52.080;9.006;2023-11-19T02:05:11;9.90;99.90
31263;DHT22;17892;52.080;9.006;2023-11-19T02:07:38;9.90;99.90
31263;DHT22;17892;52.080;9.006;2023-11-19T02:10:05;9.90;99.90
31263;DHT22;17892;52.080;9.006;2023-11-19T02:12:32;9.90;99.90
31263;DHT22;17892;52.080;9.006;2023-11-19T02:15:02;10.00;99.90
31263;DHT22;17892;52.080;9.006;2023-11-19T02:17:31;10.00;99.90
31263;DHT22;17892;52.080;9.006;2023-11-19T02:19:58;10.00;99.90
31263;DHT22;17892;52.080;9.006;2023-11-19T02:22:23;10.10;99.90
31263;DHT22;17892;52.080;9.006;2023-11-19T02:24:51;10.20;99.90
31263;DHT22;17892;52.080;9.006;2023-11-19T02:30:22;10.30;99.90
31263;DHT22;17892;52.080;9.006;2023-11-19T02:32:55;10.40;99.90
31263;DHT22;17892;52.080;9.006;2023-11-19T02:35:23;10.50;99.90
31263;DHT22;17892;52.080;9.006;2023-11-19T02:37:52;10.60;99.90
31263;DHT22;17892;52.080;9.006;2023-11-19T02:40:19;10.70;99.90
31263;DHT22;17892;52.080;9.006;2023-11-19T02:42:45;10.80;99.90
31263;DHT22;17892;52.080;9.006;2023-11-19T02:45:11;11.00;99.90
31263;DHT22;17892;52.080;9.006;2023-11-19T02:47:43;11.10;99.90
31263;DHT22;17892;52.080;9.006;2023-11-19T02:50:10;11.30;99.90
31263;DHT22;17892;52.080;9.006;2023-11-19T02:52:40;11.40;99.90
31263;DHT22;17892;52.080;9.006;2023-11-19T02:55:12;11.60;99.90
31263;DHT22;17892;52.080;9.006;2023-11-19T02:57:39;11.70;99.90
31263;DHT22;17892;52.080;9.006;2023-11-19T03:00:14;11.80;99.90
31263;DHT22;17892;52.080;9.006;2023-11-19T03:02:40;12.00;99.90
31263;DHT22;17892;52.080;9.006;2023-11-19T03:05:14;12.10;99.90
31263;DHT22;17892;52.080;9.006;2023-11-19T03:07:41;12.20;99.90
31263;DHT22;17892;52.080;9.006;2023-11-19T03:10:11;12.20;99.90
31263;DHT22;17892;52.080;9.006;2023-11-19T03:12:40;12.30;99.90
31263;DHT22;17892;52.080;9.006;2023-11-19T03:15:07;12.40;99.90
31263;DHT22;17892;52.080;9.006;2023-11-19T03:17:38;12.50;99.90
31263;DHT22;17892;52.080;9.006;2023-11-19T03:20:06;12.60;99.90
31263;DHT22;17892;52.080;9.006;2023-11-19T03:22:39;12.60;99.90
31263;DHT22;17892;52.080;9.006;2023-11-19T03:25:07;12.70;99.90
31263;DHT22;17892;52.080;9.006;2023-11-19T03:27:35;12.70;99.90
31263;DHT22;17892;52.080;9.006;2023-11-19T03:30:08;12.70;99.90
31263;DHT22;17892;52.080;9.006;2023-11-19T03:32:37;12.80;99.90
31263;DHT22;17892;52.080;9.006;2023-11-19T03:35:04;12.90;99.90
31263;DHT22;17892;52.080;9.006;2023-11-19T03:37:32;12.90;99.90
31263;DHT22;17892;52.080;9.006;2023-11-19T03:39:58;13.00;99.90
31263;DHT22;17892;52.080;9.006;2023-11-19T03:42:31;13.00;99.90
31263;DHT22;17892;52.080;9.006;2023-11-19T03:44:56;13.10;99.90
31263;DHT22;17892;52.080;9.006;2023-11-19T03:47:23;13.10;99.90
31263;DHT22;17892;52.080;9.006;2023-11-19T03:49:49;13.10;99.90
31263;DHT22;17892;52.080;9.006;2023-11-19T03:52:16;13.20;99.90
31263;DHT22;17892;52.080;9.006;2023-11-19T03:54:42;13.20;99.90
31263;DHT22;17892;52.080;9.006;2023-11-19T03:57:09;13.20;99.90
31263;DHT22;17892;52.080;9.006;2023-11-19T03:59:37;13.30;99.90
31263;DHT22;17892;52.080;9.006;2023-11-19T04:02:03;13.30;99.90
31263;DHT22;17892;52.080;9.006;2023-11-19T04:04:29;13.30;99.90
31263;DHT22;17892;52.080;9.006;2023-11-19T04:06:55;13.40;99.90
31263;DHT22;17892;52.080;9.006;2023-11-19T04:09:22;13.40;99.90
31263;DHT22;17892;52.080;9.006;2023-11-19T04:11:48;13.40;99.90
31263;DHT22;17892;52.080;9.006;2023-11-19T04:14:14;13.40;99.90
31263;DHT22;17892;52.080;9.006;2023-11-19T04:16:40;13.40;99.90
31263;DHT22;17892;52.080;9.006;2023-11-19T04:19:06;13.50;99.90
31263;DHT22;17892;52.080;9.006;2023-11-19T04:21:33;13.50;99.90
31263;DHT22;17892;52.080;9.006;2023-11-19T04:23:58;13.50;99.90
31263;DHT22;17892;52.080;9.006;2023-11-19T04:26:24;13.50;99.90
31263;DHT22;17892;52.080;9.006;2023-11-19T04:28:50;13.50;99.90
31263;DHT22;17892;52.080;9.006;2023-11-19T04:31:16;13.50;99.90
31263;DHT22;17892;52.080;9.006;2023-11-19T04:33:42;13.50;99.90
31263;DHT22;17892;52.080;9.006;2023-11-19T04:36:09;13.50;99.90
31263;DHT22;17892;52.080;9.006;2023-11-19T04:38:35;13.50;99.90
31263;DHT22;17892;52.080;9.006;2023-11-19T04:41:02;13.40;99.90
31263;DHT22;17892;52.080;9.006;2023-11-19T04:43:31;13.50;99.90
31263;DHT22;17892;52.080;9.006;2023-11-19T04:45:59;13.50;99.90
31263;DHT22;17892;52.080;9.006;2023-11-19T04:48:25;13.50;99.90
31263;DHT22;17892;52.080;9.006;2023-11-19T04:50:51;13.50;99.90
31263;DHT22;17892;52.080;9.006;2023-11-19T04:53:18;13.50;99.90
31263;DHT22;17892;52.080;9.006;2023-11-19T04:55:43;13.50;99.90
31263;DHT22;17892;52.080;9.006;2023-11-19T04:58:10;13.50;99.90
31263;DHT22;17892;52.080;9.006;2023-11-19T05:00:35;13.50;99.90
31263;DHT22;17892;52.080;9.006;2023-11-19T05:03:01;13.60;99.90
31263;DHT22;17892;52.080;9.006;2023-11-19T05:05:27;13.60;99.90
31263;DHT22;17892;52.080;9.006;2023-11-19T05:07:53;13.60;99.90
31263;DHT22;17892;52.080;9.006;2023-11-19T05:10:20;13.60;99.90
31263;DHT22;17892;52.080;9.006;2023-11-19T05:12:46;13.60;99.90
31263;DHT22;17892;52.080;9.006;2023-11-19T05:15:12;13.60;99.90
31263;DHT22;17892;52.080;9.006;2023-11-19T05:17:38;13.60;99.90
31263;DHT22;17892;52.080;9.006;2023-11-19T05:20:05;13.60;99.90
31263;DHT22;17892;52.080;9.006;2023-11-19T05:22:42;13.60;99.90
31263;DHT22;17892;52.080;9.006;2023-11-19T05:25:08;13.60;99.90
31263;DHT22;17892;52.080;9.006;2023-11-19T05:27:35;13.60;99.90
31263;DHT22;17892;52.080;9.006;2023-11-19T05:30:02;13.60;99.90
31263;DHT22;17892;52.080;9.006;2023-11-19T05:32:31;13.60;99.90
31263;DHT22;17892;52.080;9.006;2023-11-19T05:34:57;13.60;99.90
31263;DHT22;17892;52.080;9.006;2023-11-19T05:37:23;13.60;99.90
31263;DHT22;17892;52.080;9.006;2023-11-19T05:39:48;13.60;99.90
31263;DHT22;17892;52.080;9.006;2023-11-19T05:42:14;13.60;99.90
31263;DHT22;17892;52.080;9.006;2023-11-19T05:44:40;13.60;99.90
31263;DHT22;17892;52.080;9.006;2023-11-19T05:47:06;13.60;99.90
31263;DHT22;17892;52.080;9.006;2023-11-19T05:49:32;13.60;99.90
31263;DHT22;17892;52.080;9.006;2023-11-19T05:51:58;13.60;99.90
31263;DHT22;17892;52.080;9.006;2023-11-19T05:54:24;13.60;99.90
31263;DHT22;17892;52.080;9.006;2023-11-19T05:56:50;13.50;99.90
31263;DHT22;17892;52.080;9.006;2023-11-19T05:59:19;13.60;99.90
31263;DHT22;17892;52.080;9.006;2023-11-19T06:01:45;13.60;99.90
31263;DHT22;17892;52.080;9.006;2023-11-19T06:04:11;13.60;99.90
31263;DHT22;17892;52.080;9.006;2023-11-19T06:06:37;13.60;99.90
31263;DHT22;17892;52.080;9.006;2023-11-19T06:09:03;13.50;99.90
31263;DHT22;17892;52.080;9.006;2023-11-19T06:11:30;13.50;99.90
31263;DHT22;17892;52.080;9.006;2023-11-19T06:13:55;13.50;99.90
31263;DHT22;17892;52.080;9.006;2023-11-19T06:16:21;13.50;99.90
31263;DHT22;17892;52.080;9.006;2023-11-19T06:18:48;13.50;99.90
31263;DHT22;17892;52.080;9.006;2023-11-19T06:21:14;13.50;99.90
31263;DHT22;17892;52.080;9.006;2023-11-19T06:23:39;13.50;99.90
31263;DHT22;17892;52.080;9.006;2023-11-19T06:26:05;13.40;99.90
31263;DHT22;17892;52.080;9.006;2023-11-19T06:28:31;13.40;99.90
31263;DHT22;17892;52.080;9.006;2023-11-19T06:30:57;13.40;99.90
31263;DHT22;17892;52.080;9.006;2023-11-19T06:33:24;13.40;99.90
31263;DHT22;17892;52.080;9.006;2023-11-19T06:35:50;13.40;99.90
31263;DHT22;17892;52.080;9.006;2023-11-19T06:38:15;13.40;99.90
31263;DHT22;17892;52.080;9.006;2023-11-19T06:40:41;13.40;99.90
31263;DHT22;17892;52.080;9.006;2023-11-19T06:43:07;13.40;99.90
31263;DHT22;17892;52.080;9.006;2023-11-19T06:45:34;13.40;99.90
31263;DHT22;17892;52.080;9.006;2023-11-19T06:48:02;13.40;99.90
31263;DHT22;17892;52.080;9.006;2023-11-19T06:50:31;13.40;99.90
31263;DHT22;17892;52.080;9.006;2023-11-19T06:52:57;13.40;99.90
31263;DHT22;17892;52.080;9.006;2023-11-19T06:55:23;13.40;99.90
31263;DHT22;17892;52.080;9.006;2023-11-19T06:57:49;13.40;99.90
31263;DHT22;17892;52.080;9.006;2023-11-19T07:00:15;13.40;99.90
31263;DHT22;17892;52.080;9.006;2023-11-19T07:02:41;13.30;99.90
31263;DHT22;17892;52.080;9.006;2023-11-19T07:05:07;13.30;99.90
31263;DHT22;17892;52.080;9.006;2023-11-19T07:07:33;13.40;99.90
31263;DHT22;17892;52.080;9.006;2023-11-19T07:10:00;13.40;99.90
31263;DHT22;17892;52.080;9.006;2023-11-19T07:12:27;13.40;99.90
31263;DHT22;17892;52.080;9.006;2023-11-19T07:14:53;13.40;99.90
31263;DHT22;17892;52.080;9.006;2023-11-19T07:17:20;13.40;99.90
31263;DHT22;17892;52.080;9.006;2023-11-19T07:19:47;13.40;99.90
31263;DHT22;17892;52.080;9.006;2023-11-19T07:22:14;13.40;99.90
31263;DHT22;17892;52.080;9.006;2023-11-19T07:24:40;13.40;99.90
31263;DHT22;17892;52.080;9.006;2023-11-19T07:27:07;13.40;99.90
31263;DHT22;17892;52.080;9.006;2023-11-19T07:29:34;13.40;99.90
31263;DHT22;17892;52.080;9.006;2023-11-19T07:32:01;13.40;99.90
31263;DHT22;17892;52.080;9.006;2023-11-19T07:34:30;13.40;99.90
31263;DHT22;17892;52.080;9.006;2023-11-19T07:36:56;13.40;99.90
31263;DHT22;17892;52.080;9.006;2023-11-19T07:39:24;13.40;99.90
31263;DHT22;17892;52.080;9.006;2023-11-19T07:41:50;13.40;99.90
31263;DHT22;17892;52.080;9.006;2023-11-19T07:44:16;13.40;99.90
31263;DHT22;17892;52.080;9.006;2023-11-19T07:46:42;13.40;99.90
31263;DHT22;17892;52.080;9.006;2023-11-19T07:49:07;13.40;99.90
31263;DHT22;17892;52.080;9.006;2023-11-19T07:51:35;13.40;99.90
31263;DHT22;17892;52.080;9.006;2023-11-19T07:54:01;13.40;99.90
31263;DHT22;17892;52.080;9.006;2023-11-19T07:56:27;13.40;99.90
31263;DHT22;17892;52.080;9.006;2023-11-19T07:58:52;13.40;99.90
31263;DHT22;17892;52.080;9.006;2023-11-19T08:01:18;13.40;99.90
31263;DHT22;17892;52.080;9.006;2023-11-19T08:03:44;13.30;99.90
31263;DHT22;17892;52.080;9.006;2023-11-19T08:06:10;13.30;99.90
31263;DHT22;17892;52.080;9.006;2023-11-19T08:08:36;13.30;99.90
31263;DHT22;17892;52.080;9.006;2023-11-19T08:11:03;13.30;99.90
31263;DHT22;17892;52.080;9.006;2023-11-19T08:13:30;13.30;99.90
31263;DHT22;17892;52.080;9.006;2023-11-19T08:15:57;13.30;99.90
31263;DHT22;17892;52.080;9.006;2023-11-19T08:18:24;13.40;99.90
31263;DHT22;17892;52.080;9.006;2023-11-19T08:20:50;13.40;99.90
31263;DHT22;17892;52.080;9.006;2023-11-19T08:23:19;13.40;99.90
31263;DHT22;17892;52.080;9.006;2023-11-19T08:25:45;13.40;99.90
31263;DHT22;17892;52.080;9.006;2023-11-19T08:28:11;13.40;99.90
31263;DHT22;17892;52.080;9.006;2023-11-19T08:30:36;13.40;99.90
31263;DHT22;17892;52.080;9.006;2023-11-19T08:33:02;13.40;99.90
31263;DHT22;17892;52.080;9.006;2023-11-19T08:35:29;13.40;99.90
31263;DHT22;17892;52.080;9.006;2023-11-19T08:37:55;13.30;99.90
31263;DHT22;17892;52.080;9.006;2023-11-19T08:40:21;13.30;99.90
31263;DHT22;17892;52.080;9.006;2023-11-19T08:42:46;13.30;99.90
31263;DHT22;17892;52.080;9.006;2023-11-19T08:45:12;13.30;99.90
31263;DHT22;17892;52.080;9.006;2023-11-19T08:47:38;13.30;99.90
31263;DHT22;17892;52.080;9.006;2023-11-19T08:50:06;13.30;99.90
31263;DHT22;17892;52.080;9.006;2023-11-19T08:52:32;13.30;99.90
31263;DHT22;17892;52.080;9.006;2023-11-19T08:54:57;13.30;99.90
31263;DHT22;17892;52.080;9.006;2023-11-19T08:57:23;13.30;99.90
31263;DHT22;17892;52.080;9.006;2023-11-19T08:59:49;13.30;99.90
31263;DHT22;17892;52.080;9.006;2023-11-19T09:02:14;13.30;99.90
31263;DHT22;17892;52.080;9.006;2023-11-19T09:04:40;13.30;99.90
31263;DHT22;17892;52.080;9.006;2023-11-19T09:07:06;13.20;99.90
31263;DHT22;17892;52.080;9.006;2023-11-19T09:09:34;13.10;99.90
31263;DHT22;17892;52.080;9.006;2023-11-19T09:12:01;13.10;99.90
31263;DHT22;17892;52.080;9.006;2023-11-19T09:14:27;13.10;99.90
31263;DHT22;17892;52.080;9.006;2023-11-19T09:16:53;13.00;99.90
31263;DHT22;17892;52.080;9.006;2023-11-19T09:19:18;13.00;99.90
31263;DHT22;17892;52.080;9.006;2023-11-19T09:21:45;13.00;99.90
31263;DHT22;17892;52.080;9.006;2023-11-19T09:24:10;13.00;99.90
31263;DHT22;17892;52.080;9.006;2023-11-19T09:26:36;13.00;99.90
31263;DHT22;17892;52.080;9.006;2023-11-19T09:29:04;13.00;99.90
31263;DHT22;17892;52.080;9.006;2023-11-19T09:31:30;13.00;99.90
31263;DHT22;17892;52.080;9.006;2023-11-19T09:33:55;13.00;99.90
31263;DHT22;17892;52.080;9.006;2023-11-19T09:36:21;13.00;99.90
31263;DHT22;17892;52.080;9.006;2023-11-19T09:38:47;13.00;99.90
31263;DHT22;17892;52.080;9.006;2023-11-19T09:41:13;13.00;99.90
31263;DHT22;17892;52.080;9.006;2023-11-19T09:43:39;13.00;99.90
31263;DHT22;17892;52.080;9.006;2023-11-19T09:46:08;13.00;99.90
31263;DHT22;17892;52.080;9.006;2023-11-19T09:48:37;13.10;99.90
31263;DHT22;17892;52.080;9.006;2023-11-19T09:51:08;13.20;99.90
31263;DHT22;17892;52.080;9.006;2023-11-19T09:53:35;13.20;99.90
31263;DHT22;17892;52.080;9.006;2023-11-19T09:56:02;13.30;99.90
31263;DHT22;17892;52.080;9.006;2023-11-19T09:58:30;13.40;99.90
31263;DHT22;17892;52.080;9.006;2023-11-19T10:00:57;13.50;99.90
31263;DHT22;17892;52.080;9.006;2023-11-19T10:03:35;13.50;99.90
31263;DHT22;17892;52.080;9.006;2023-11-19T10:06:08;13.60;99.90
31263;DHT22;17892;52.080;9.006;2023-11-19T10:08:38;13.60;99.90
31263;DHT22;17892;52.080;9.006;2023-11-19T10:11:08;13.60;99.90
31263;DHT22;17892;52.080;9.006;2023-11-19T10:13:35;13.70;99.90
31263;DHT22;17892;52.080;9.006;2023-11-19T10:16:13;13.70;99.90
31263;DHT22;17892;52.080;9.006;2023-11-19T10:18:48;13.80;99.90
31263;DHT22;17892;52.080;9.006;2023-11-19T10:21:18;13.80;99.90
31263;DHT22;17892;52.080;9.006;2023-11-19T10:26:17;13.80;99.90
31263;DHT22;17892;52.080;9.006;2023-11-19T10:28:43;13.80;99.90
31263;DHT22;17892;52.080;9.006;2023-11-19T10:31:14;13.70;99.90
31263;DHT22;17892;52.080;9.006;2023-11-19T10:33:41;13.70;99.90
31263;DHT22;17892;52.080;9.006;2023-11-19T10:36:07;13.70;99.90
31263;DHT22;17892;52.080;9.006;2023-11-19T10:38:33;13.70;99.90
31263;DHT22;17892;52.080;9.006;2023-11-19T10:40:59;13.60;99.90
31263;DHT22;17892;52.080;9.006;2023-11-19T10:43:25;13.60;99.90
31263;DHT22;17892;52.080;9.006;2023-11-19T10:45:51;13.60;99.90
31263;DHT22;17892;52.080;9.006;2023-11-19T10:48:17;13.60;99.90
31263;DHT22;17892;52.080;9.006;2023-11-19T10:50:44;13.60;99.90
31263;DHT22;17892;52.080;9.006;2023-11-19T10:53:12;13.70;99.90
31263;DHT22;17892;52.080;9.006;2023-11-19T10:55:47;13.70;99.90
31263;DHT22;17892;52.080;9.006;2023-11-19T10:58:16;13.70;99.90
31263;DHT22;17892;52.080;9.006;2023-11-19T11:00:56;13.70;99.90
31263;DHT22;17892;52.080;9.006;2023-11-19T11:03:25;13.80;99.90
31263;DHT22;17892;52.080;9.006;2023-11-19T11:05:53;13.80;99.90
31263;DHT22;17892;52.080;9.006;2023-11-19T11:08:20;13.80;99.90
31263;DHT22;17892;52.080;9.006;2023-11-19T11:10:52;13.90;99.90
31263;DHT22;17892;52.080;9.006;2023-11-19T11:13:19;13.90;99.90
31263;DHT22;17892;52.080;9.006;2023-11-19T11:15:45;14.00;99.90
31263;DHT22;17892;52.080;9.006;2023-11-19T11:18:12;14.00;99.90
31263;DHT22;17892;52.080;9.006;2023-11-19T11:20:39;14.10;99.90
31263;DHT22;17892;52.080;9.006;2023-11-19T11:23:56;14.20;99.90
31263;DHT22;17892;52.080;9.006;2023-11-19T11:29:41;14.20;99.90
31263;DHT22;17892;52.080;9.006;2023-11-19T11:37:44;14.30;99.90
31263;DHT22;17892;52.080;9.006;2023-11-19T11:40:14;14.30;99.90
31263;DHT22;17892;52.080;9.006;2023-11-19T11:42:41;14.30;99.90
31263;DHT22;17892;52.080;9.006;2023-11-19T11:45:09;14.40;99.90
31263;DHT22;17892;52.080;9.006;2023-11-19T11:50:15;14.50;99.90
31263;DHT22;17892;52.080;9.006;2023-11-19T11:55:27;14.50;99.90
31263;DHT22;17892;52.080;9.006;2023-11-19T11:57:56;14.40;99.90
31263;DHT22;17892;52.080;9.006;2023-11-19T12:00:31;14.30;99.90
31263;DHT22;17892;52.080;9.006;2023-11-19T12:03:01;14.30;99.90
31263;DHT22;17892;52.080;9.006;2023-11-19T12:05:29;14.10;99.90
31263;DHT22;17892;52.080;9.006;2023-11-19T12:10:32;13.90;99.90
31263;DHT22;17892;52.080;9.006;2023-11-19T12:13:05;13.80;99.90
31263;DHT22;17892;52.080;9.006;2023-11-19T12:15:32;13.70;99.90
31263;DHT22;17892;52.080;9.006;2023-11-19T12:17:58;13.60;99.90
31263;DHT22;17892;52.080;9.006;2023-11-19T12:20:25;13.60;99.90
31263;DHT22;17892;52.080;9.006;2023-11-19T12:22:52;13.60;99.90
31263;DHT22;17892;52.080;9.006;2023-11-19T12:25:19;13.60;99.90
31263;DHT22;17892;52.080;9.006;2023-11-19T12:27:47;13.60;99.90
31263;DHT22;17892;52.080;9.006;2023-11-19T12:30:23;13.60;99.90
31263;DHT22;17892;52.080;9.006;2023-11-19T12:32:49;13.70;99.90
31263;DHT22;17892;52.080;9.006;2023-11-19T12:35:15;13.70;99.90
31263;DHT22;17892;52.080;9.006;2023-11-19T12:37:45;13.60;99.90
31263;DHT22;17892;52.080;9.006;2023-11-19T12:40:15;13.60;99.90
31263;DHT22;17892;52.080;9.006;2023-11-19T12:42:48;13.50;99.90
31263;DHT22;17892;52.080;9.006;2023-11-19T12:45:15;13.50;99.90
31263;DHT22;17892;52.080;9.006;2023-11-19T12:47:43;13.40;99.90
31263;DHT22;17892;52.080;9.006;2023-11-19T12:50:10;13.40;99.90
31263;DHT22;17892;52.080;9.006;2023-11-19T12:52:37;13.40;99.90
31263;DHT22;17892;52.080;9.006;2023-11-19T12:55:05;13.30;99.90
31263;DHT22;17892;52.080;9.006;2023-11-19T12:57:48;13.30;99.90
31263;DHT22;17892;52.080;9.006;2023-11-19T13:00:24;13.30;99.90
31263;DHT22;17892;52.080;9.006;2023-11-19T13:02:55;13.30;99.90
31263;DHT22;17892;52.080;9.006;2023-11-19T13:08:08;13.40;99.90
31263;DHT22;17892;52.080;9.006;2023-11-19T13:10:50;13.50;99.90
31263;DHT22;17892;52.080;9.006;2023-11-19T13:13:17;13.50;99.90
31263;DHT22;17892;52.080;9.006;2023-11-19T13:15:43;13.50;99.90
31263;DHT22;17892;52.080;9.006;2023-11-19T13:18:10;13.60;99.90
31263;DHT22;17892;52.080;9.006;2023-11-19T13:20:37;13.60;99.90
31263;DHT22;17892;52.080;9.006;2023-11-19T13:23:04;13.60;99.90
31263;DHT22;17892;52.080;9.006;2023-11-19T13:25:32;13.70;99.90
31263;DHT22;17892;52.080;9.006;2023-11-19T13:27:58;13.70;99.90
31263;DHT22;17892;52.080;9.006;2023-11-19T13:30:25;13.70;99.90
31263;DHT22;17892;52.080;9.006;2023-11-19T13:32:51;13.70;99.90
31263;DHT22;17892;52.080;9.006;2023-11-19T13:35:18;13.70;99.90
31263;DHT22;17892;52.080;9.006;2023-11-19T13:37:47;13.70;99.90
31263;DHT22;17892;52.080;9.006;2023-11-19T13:40:13;13.80;99.90
31263;DHT22;17892;52.080;9.006;2023-11-19T13:42:41;13.80;99.90
31263;DHT22;17892;52.080;9.006;2023-11-19T13:45:14;13.80;99.90
31263;DHT22;17892;52.080;9.006;2023-11-19T13:47:42;13.80;99.90
31263;DHT22;17892;52.080;9.006;2023-11-19T13:50:13;13.80;99.90
31263;DHT22;17892;52.080;9.006;2023-11-19T13:52:43;13.80;99.90
31263;DHT22;17892;52.080;9.006;2023-11-19T13:55:11;13.80;99.90
31263;DHT22;17892;52.080;9.006;2023-11-19T13:57:38;13.80;99.90
31263;DHT22;17892;52.080;9.006;2023-11-19T14:00:06;13.80;99.90
31263;DHT22;17892;52.080;9.006;2023-11-19T14:02:39;13.90;99.90
31263;DHT22;17892;52.080;9.006;2023-11-19T14:05:06;13.90;99.90
31263;DHT22;17892;52.080;9.006;2023-11-19T14:07:32;13.90;99.90
31263;DHT22;17892;52.080;9.006;2023-11-19T14:09:59;13.90;99.90
31263;DHT22;17892;52.080;9.006;2023-11-19T14:12:25;14.00;99.90
31263;DHT22;17892;52.080;9.006;2023-11-19T14:14:50;14.00;99.90
31263;DHT22;17892;52.080;9.006;2023-11-19T14:17:16;14.00;99.90
31263;DHT22;17892;52.080;9.006;2023-11-19T14:19:42;14.00;99.90
31263;DHT22;17892;52.080;9.006;2023-11-19T14:22:09;14.10;99.90
31263;DHT22;17892;52.080;9.006;2023-11-19T14:24:35;14.10;99.90
31263;DHT22;17892;52.080;9.006;2023-11-19T14:27:03;14.10;99.90
31263;DHT22;17892;52.080;9.006;2023-11-19T14:29:29;14.10;99.90
31263;DHT22;17892;52.080;9.006;2023-11-19T14:31:56;14.10;99.90
31263;DHT22;17892;52.080;9.006;2023-11-19T14:34:24;14.10;99.90
31263;DHT22;17892;52.080;9.006;2023-11-19T14:36:52;14.10;99.90
31263;DHT22;17892;52.080;9.006;2023-11-19T14:39:19;14.00;99.90
31263;DHT22;17892;52.080;9.006;2023-11-19T14:41:45;14.00;99.90
31263;DHT22;17892;52.080;9.006;2023-11-19T14:44:11;14.00;99.90
31263;DHT22;17892;52.080;9.006;2023-11-19T14:46:38;14.00;99.90
31263;DHT22;17892;52.080;9.006;2023-11-19T14:49:04;14.00;99.90
31263;DHT22;17892;52.080;9.006;2023-11-19T14:51:30;13.90;99.90
31263;DHT22;17892;52.080;9.006;2023-11-19T14:53:57;13.90;99.90
31263;DHT22;17892;52.080;9.006;2023-11-19T14:56:23;13.90;99.90
31263;DHT22;17892;52.080;9.006;2023-11-19T14:58:48;13.80;99.90
31263;DHT22;17892;52.080;9.006;2023-11-19T15:01:16;13.80;99.90
31263;DHT22;17892;52.080;9.006;2023-11-19T15:03:42;13.80;99.90
31263;DHT22;17892;52.080;9.006;2023-11-19T15:06:08;13.70;99.90
31263;DHT22;17892;52.080;9.006;2023-11-19T15:08:33;13.70;99.90
31263;DHT22;17892;52.080;9.006;2023-11-19T15:10:59;13.60;99.90
31263;DHT22;17892;52.080;9.006;2023-11-19T15:13:27;13.70;99.90
31263;DHT22;17892;52.080;9.006;2023-11-19T15:15:53;13.70;99.90
31263;DHT22;17892;52.080;9.006;2023-11-19T15:18:20;13.70;99.90
31263;DHT22;17892;52.080;9.006;2023-11-19T15:20:46;13.70;99.90
31263;DHT22;17892;52.080;9.006;2023-11-19T15:23:13;13.70;99.90
31263;DHT22;17892;52.080;9.006;2023-11-19T15:25:39;13.70;99.90
31263;DHT22;17892;52.080;9.006;2023-11-19T15:28:05;13.70;99.90
31263;DHT22;17892;52.080;9.006;2023-11-19T15:30:30;13.70;99.90
31263;DHT22;17892;52.080;9.006;2023-11-19T15:32:56;13.70;99.90
31263;DHT22;17892;52.080;9.006;2023-11-19T15:35:22;13.70;99.90
31263;DHT22;17892;52.080;9.006;2023-11-19T15:37:48;13.60;99.90
31263;DHT22;17892;52.080;9.006;2023-11-19T15:40:14;13.60;99.90
31263;DHT22;17892;52.080;9.006;2023-11-19T15:42:40;13.60;99.90
31263;DHT22;17892;52.080;9.006;2023-11-19T15:45:07;13.50;99.90
31263;DHT22;17892;52.080;9.006;2023-11-19T15:47:33;13.60;99.90
31263;DHT22;17892;52.080;9.006;2023-11-19T15:50:01;13.60;99.90
31263;DHT22;17892;52.080;9.006;2023-11-19T15:52:28;13.50;99.90
31263;DHT22;17892;52.080;9.006;2023-11-19T15:54:55;13.50;99.90
31263;DHT22;17892;52.080;9.006;2023-11-19T15:57:21;13.60;99.90